createdAt,value
2019-05-19T00:00:06.385Z,68.90
2019-05-19T00:02:35.768Z,68.10
2019-05-19T00:05:05.409Z,64.13
2019-05-19T00:07:34.457Z,69.10
2019-05-19T00:10:03.908Z,72.77
2019-05-19T00:12:32.976Z,70.40
2019-05-19T00:15:02.393Z,66.03
2019-05-19T00:17:31.454Z,73.20
2019-05-19T00:20:00.904Z,73.17
2019-05-19T00:22:29.955Z,70.70
2019-05-19T00:25:02.491Z,69.57
2019-05-19T00:27:31.538Z,70.53
2019-05-19T00:30:00.553Z,72.73
2019-05-19T00:32:29.630Z,73.87
2019-05-19T00:34:58.672Z,71.53
2019-05-19T00:37:27.710Z,72.13
2019-05-19T00:39:56.762Z,72.90
2019-05-19T00:42:26.189Z,70.40
2019-05-19T00:44:55.300Z,75.70
2019-05-19T00:47:24.347Z,76.80
2019-05-19T00:49:53.394Z,74.77
2019-05-19T00:52:22.460Z,80.57
2019-05-19T00:54:51.582Z,74.57
2019-05-19T00:57:20.667Z,80.27
2019-05-19T00:59:50.697Z,74.00
2019-05-19T01:02:19.789Z,72.13
2019-05-19T01:04:49.876Z,79.73
2019-05-19T01:07:18.950Z,77.20
2019-05-19T01:09:48.379Z,80.33
2019-05-19T01:12:17.458Z,82.80
2019-05-19T01:14:46.503Z,83.13
2019-05-19T01:17:15.503Z,84.27
2019-05-19T01:19:55.689Z,78.33
2019-05-19T01:22:15.651Z,76.90
2019-05-19T01:24:44.695Z,82.33
2019-05-19T01:27:13.758Z,78.70
2019-05-19T01:29:42.783Z,83.20
2019-05-19T01:32:12.767Z,77.67
2019-05-19T01:34:41.876Z,79.40
2019-05-19T01:37:11.275Z,79.33
2019-05-19T01:39:40.594Z,78.30
2019-05-19T01:42:09.647Z,82.67
2019-05-19T01:44:38.691Z,82.67
2019-05-19T01:47:08.118Z,82.90
2019-05-19T01:49:37.883Z,79.23
2019-05-19T01:52:06.990Z,84.43
2019-05-19T01:54:36.300Z,82.40
2019-05-19T01:57:05.995Z,88.50
2019-05-19T01:59:35.037Z,87.10
2019-05-19T02:02:04.165Z,87.97
2019-05-19T02:04:33.244Z,89.90
2019-05-19T02:07:02.623Z,86.80
2019-05-19T02:09:32.004Z,83.07
2019-05-19T02:12:01.135Z,86.40
2019-05-19T02:14:30.177Z,79.57
2019-05-19T02:16:59.593Z,82.40
2019-05-19T02:19:28.650Z,81.83
2019-05-19T02:21:57.720Z,84.33
2019-05-19T02:24:27.113Z,85.13
2019-05-19T02:26:56.121Z,81.23
2019-05-19T02:29:25.482Z,81.10
2019-05-19T02:31:55.269Z,80.43
2019-05-19T02:34:24.675Z,85.27
2019-05-19T02:36:54.119Z,81.47
2019-05-19T02:39:23.573Z,82.40
2019-05-19T02:41:54.443Z,82.80
2019-05-19T02:44:23.583Z,81.97
2019-05-19T02:46:52.923Z,84.67
2019-05-19T02:49:22.387Z,89.37
2019-05-19T02:51:52.656Z,92.40
2019-05-19T02:54:21.971Z,84.03
2019-05-19T02:56:52.528Z,84.47
2019-05-19T02:59:23.250Z,91.57
2019-05-19T03:02:03.513Z,95.37
2019-05-19T03:04:33.581Z,94.87
2019-05-19T03:07:02.872Z,88.40
2019-05-19T03:09:32.257Z,91.37
2019-05-19T03:12:01.303Z,92.87
2019-05-19T03:14:30.319Z,85.60
2019-05-19T03:16:59.695Z,91.77
2019-05-19T03:19:28.719Z,97.87
2019-05-19T03:21:57.761Z,96.73
2019-05-19T03:24:26.775Z,94.07
2019-05-19T03:26:56.224Z,91.43
2019-05-19T03:29:30.493Z,96.07
2019-05-19T03:32:15.349Z,94.77
2019-05-19T03:34:44.732Z,90.57
2019-05-19T03:37:13.802Z,101.93
2019-05-19T03:39:42.894Z,94.20
2019-05-19T03:42:12.003Z,94.43
2019-05-19T03:44:41.042Z,91.83
2019-05-19T03:47:10.475Z,95.07
2019-05-19T03:49:40.144Z,92.83
2019-05-19T03:52:09.215Z,95.00
2019-05-19T03:54:38.230Z,95.73
2019-05-19T03:57:08.036Z,93.33
2019-05-19T03:59:37.153Z,98.07
2019-05-19T04:02:06.520Z,97.80
2019-05-19T04:04:35.933Z,90.67
2019-05-19T04:07:05.310Z,98.70
2019-05-19T04:09:34.372Z,106.03
2019-05-19T04:12:03.755Z,102.50
2019-05-19T04:14:32.844Z,111.80
2019-05-19T04:17:02.372Z,109.87
2019-05-19T04:19:32.951Z,109.93
2019-05-19T04:22:02.026Z,109.77
2019-05-19T04:24:31.099Z,105.43
2019-05-19T04:27:00.166Z,107.23
2019-05-19T04:29:29.615Z,106.50
2019-05-19T04:31:59.048Z,103.00
2019-05-19T04:34:28.466Z,113.67
2019-05-19T04:36:57.927Z,103.43
2019-05-19T04:39:27.005Z,107.67
2019-05-19T04:41:56.476Z,108.73
2019-05-19T04:44:26.287Z,107.07
2019-05-19T04:46:55.694Z,111.87
2019-05-19T04:49:25.066Z,108.10
2019-05-19T04:52:05.892Z,105.07
2019-05-19T04:54:25.255Z,112.80
2019-05-19T04:56:54.575Z,102.97
2019-05-19T04:59:23.577Z,105.20
2019-05-19T05:01:52.632Z,118.43
2019-05-19T05:04:21.664Z,105.13
2019-05-19T05:06:50.784Z,105.03
2019-05-19T05:09:19.848Z,106.87
2019-05-19T05:11:48.891Z,109.97
2019-05-19T05:14:17.956Z,103.33
2019-05-19T05:16:46.994Z,109.67
2019-05-19T05:19:16.045Z,109.70
2019-05-19T05:21:45.111Z,102.47
2019-05-19T05:24:14.405Z,108.30
2019-05-19T05:26:43.450Z,92.37
2019-05-19T05:29:12.565Z,97.87
2019-05-19T05:31:41.638Z,99.20
2019-05-19T05:34:10.758Z,98.80
2019-05-19T05:36:39.842Z,102.50
2019-05-19T05:39:10.021Z,95.90
2019-05-19T05:41:39.139Z,102.03
2019-05-19T05:44:08.529Z,94.83
2019-05-19T05:46:37.572Z,98.67
2019-05-19T05:49:06.737Z,101.37
2019-05-19T05:51:35.792Z,85.47
2019-05-19T05:54:05.143Z,89.93
2019-05-19T05:56:34.206Z,96.20
2019-05-19T05:59:03.240Z,86.93
2019-05-19T06:01:32.355Z,94.80
2019-05-19T06:04:01.508Z,95.70
2019-05-19T06:06:30.584Z,93.97
2019-05-19T06:08:59.979Z,94.77
2019-05-19T06:11:29.080Z,88.77
2019-05-19T06:13:58.126Z,91.00
2019-05-19T06:16:27.166Z,87.93
2019-05-19T06:18:56.943Z,84.10
2019-05-19T06:21:26.095Z,96.33
2019-05-19T06:23:55.157Z,87.77
2019-05-19T06:26:24.551Z,71.20
2019-05-19T06:28:53.912Z,67.63
2019-05-19T06:31:22.971Z,82.10
2019-05-19T06:33:52.487Z,74.70
2019-05-19T06:36:21.541Z,81.73
2019-05-19T06:38:50.721Z,82.83
2019-05-19T06:41:21.023Z,80.17
2019-05-19T06:43:50.414Z,77.70
2019-05-19T06:46:19.768Z,67.53
2019-05-19T06:48:48.869Z,82.30
2019-05-19T06:51:17.975Z,72.73
2019-05-19T06:53:47.114Z,72.60
2019-05-19T06:56:16.469Z,73.73
2019-05-19T06:58:45.566Z,83.40
2019-05-19T07:01:14.613Z,75.77
2019-05-19T07:03:44.067Z,77.17
2019-05-19T07:06:13.171Z,83.47
2019-05-19T07:08:42.541Z,81.80
2019-05-19T07:11:11.659Z,80.20
2019-05-19T07:13:40.695Z,76.60
2019-05-19T07:16:09.727Z,54.80
2019-05-19T07:18:38.811Z,78.73
2019-05-19T07:21:09.013Z,77.73
2019-05-19T07:23:38.332Z,81.33
2019-05-19T07:26:07.979Z,77.27
2019-05-19T07:28:37.013Z,66.23
2019-05-19T07:31:06.040Z,86.67
2019-05-19T07:33:35.539Z,81.73
2019-05-19T07:36:05.033Z,81.73
2019-05-19T07:38:34.097Z,80.87
2019-05-19T07:41:03.180Z,80.23
2019-05-19T07:43:32.211Z,83.83
2019-05-19T07:46:01.311Z,79.57
2019-05-19T07:48:30.745Z,81.40
2019-05-19T07:50:59.807Z,81.07
2019-05-19T07:53:42.188Z,78.07
2019-05-19T07:55:59.619Z,82.80
2019-05-19T07:58:29.551Z,74.03
2019-05-19T08:00:58.758Z,80.67
2019-05-19T08:03:27.839Z,84.10
2019-05-19T08:05:57.208Z,97.07
2019-05-19T08:08:26.307Z,87.83
2019-05-19T08:10:55.756Z,84.70
2019-05-19T08:13:24.818Z,82.67
2019-05-19T08:15:53.829Z,78.80
2019-05-19T08:18:22.857Z,85.43
2019-05-19T08:20:52.648Z,82.13
2019-05-19T08:23:22.452Z,77.17
2019-05-19T08:25:51.515Z,73.87
2019-05-19T08:28:20.556Z,79.50
2019-05-19T08:30:49.652Z,79.37
2019-05-19T08:33:19.479Z,76.23
2019-05-19T08:35:48.647Z,85.17
2019-05-19T08:38:17.662Z,83.77
2019-05-19T08:40:47.074Z,73.83
2019-05-19T08:43:16.456Z,74.60
2019-05-19T08:45:45.915Z,81.50
2019-05-19T08:48:14.938Z,78.53
2019-05-19T08:50:43.946Z,70.53
2019-05-19T08:53:13.309Z,77.13
2019-05-19T08:55:42.389Z,76.50
2019-05-19T08:58:11.489Z,67.50
2019-05-19T09:00:40.533Z,70.83
2019-05-19T09:03:09.981Z,62.63
2019-05-19T09:05:39.033Z,70.50
2019-05-19T09:08:08.442Z,66.17
2019-05-19T09:10:37.853Z,63.53
2019-05-19T09:13:07.210Z,66.07
2019-05-19T09:15:36.249Z,64.43
2019-05-19T09:18:05.302Z,65.30
2019-05-19T09:20:34.712Z,58.07
2019-05-19T09:23:04.251Z,57.87
2019-05-19T09:25:33.847Z,60.63
2019-05-19T09:28:03.244Z,60.93
2019-05-19T09:30:32.323Z,62.13
2019-05-19T09:33:01.474Z,68.10
2019-05-19T09:35:30.463Z,62.27
2019-05-19T09:37:59.515Z,59.20
2019-05-19T09:40:28.625Z,63.37
2019-05-19T09:42:58.360Z,63.13
2019-05-19T09:45:28.450Z,61.10
2019-05-19T09:47:57.544Z,61.77
2019-05-19T09:50:27.100Z,66.53
2019-05-19T09:52:56.176Z,61.60
2019-05-19T09:55:25.917Z,62.40
2019-05-19T09:57:55.120Z,59.73
2019-05-19T10:00:24.256Z,60.73
2019-05-19T10:02:53.426Z,58.90
2019-05-19T10:05:22.842Z,61.60
2019-05-19T10:07:51.923Z,61.23
2019-05-19T10:10:47.852Z,59.40
2019-05-19T10:13:16.883Z,61.47
2019-05-19T10:15:46.569Z,62.43
2019-05-19T10:18:15.611Z,60.80
2019-05-19T10:20:44.783Z,59.33
2019-05-19T10:23:13.846Z,59.47
2019-05-19T10:25:43.123Z,50.20
2019-05-19T10:28:12.214Z,48.83
2019-05-19T10:30:41.285Z,47.93
2019-05-19T10:33:10.370Z,46.97
2019-05-19T10:35:43.294Z,44.93
2019-05-19T10:38:12.511Z,42.43
2019-05-19T10:40:41.531Z,46.23
2019-05-19T10:43:11.245Z,47.50
2019-05-19T10:45:40.294Z,46.80
2019-05-19T10:48:09.384Z,42.20
2019-05-19T10:50:38.859Z,38.57
2019-05-19T10:53:07.921Z,39.70
2019-05-19T10:55:37.206Z,34.53
2019-05-19T10:58:06.642Z,33.87
2019-05-19T11:00:35.721Z,30.43
2019-05-19T11:03:05.575Z,30.10
2019-05-19T11:05:34.611Z,29.17
2019-05-19T11:08:03.702Z,29.17
2019-05-19T11:10:32.829Z,28.33
2019-05-19T11:13:02.124Z,25.97
2019-05-19T11:15:31.493Z,28.00
2019-05-19T11:18:00.587Z,27.80
2019-05-19T11:20:30.004Z,28.63
2019-05-19T11:22:59.865Z,25.43
2019-05-19T11:25:34.004Z,29.50
2019-05-19T11:28:00.267Z,24.17
2019-05-19T11:30:30.137Z,28.90
2019-05-19T11:32:59.197Z,28.77
2019-05-19T11:35:28.281Z,26.03
2019-05-19T11:37:57.700Z,22.10
2019-05-19T11:40:26.802Z,23.53
2019-05-19T11:42:56.104Z,27.33
2019-05-19T11:45:25.887Z,28.23
2019-05-19T11:47:55.330Z,28.43
2019-05-19T11:50:24.392Z,28.30
2019-05-19T11:52:53.449Z,28.50
2019-05-19T11:55:22.805Z,28.10
2019-05-19T11:57:51.918Z,29.87
2019-05-19T12:00:21.017Z,31.30
2019-05-19T12:02:50.079Z,29.93
2019-05-19T12:05:19.513Z,29.13
2019-05-19T12:07:48.880Z,28.40
2019-05-19T12:10:18.136Z,30.00
2019-05-19T12:12:47.729Z,29.37
2019-05-19T12:15:16.980Z,29.33
2019-05-19T12:17:46.129Z,29.10
2019-05-19T12:20:15.664Z,30.90
2019-05-19T12:22:44.757Z,29.03
2019-05-19T12:25:14.451Z,34.53
2019-05-19T12:27:46.693Z,28.57
2019-05-19T12:30:20.083Z,30.80
2019-05-19T12:32:49.388Z,33.77
2019-05-19T12:35:18.796Z,32.73
2019-05-19T12:37:48.173Z,33.30
2019-05-19T12:40:17.642Z,31.07
2019-05-19T12:42:46.667Z,34.10
2019-05-19T12:45:15.746Z,29.13
2019-05-19T12:47:44.849Z,33.07
2019-05-19T12:50:14.495Z,31.73
2019-05-19T12:52:43.583Z,27.43
2019-05-19T12:55:12.754Z,28.03
2019-05-19T12:57:41.867Z,27.80
2019-05-19T13:00:11.018Z,29.70
2019-05-19T13:02:40.104Z,24.30
2019-05-19T13:05:09.721Z,28.23
2019-05-19T13:07:38.897Z,25.27
2019-05-19T13:10:09.011Z,23.40
2019-05-19T13:12:38.064Z,23.13
2019-05-19T13:15:07.626Z,24.40
2019-05-19T13:17:37.004Z,27.13
2019-05-19T13:20:06.353Z,25.07
2019-05-19T13:22:35.454Z,24.13
2019-05-19T13:25:05.169Z,24.63
2019-05-19T13:27:34.743Z,23.35
2019-05-19T13:30:04.334Z,21.43
2019-05-19T13:32:33.531Z,20.68
2019-05-19T13:35:02.866Z,22.70
2019-05-19T13:37:32.309Z,26.53
2019-05-19T13:40:02.073Z,22.33
2019-05-19T13:42:31.413Z,24.73
2019-05-19T13:45:00.514Z,25.00
2019-05-19T13:47:29.624Z,24.50
2019-05-19T13:49:58.707Z,22.90
2019-05-19T13:52:27.855Z,25.93
2019-05-19T13:54:56.951Z,25.03
2019-05-19T13:57:26.535Z,23.37
2019-05-19T13:59:55.589Z,27.53
2019-05-19T14:02:24.947Z,23.67
2019-05-19T14:04:54.069Z,26.97
2019-05-19T14:07:23.422Z,23.90
2019-05-19T14:09:53.195Z,24.53
2019-05-19T14:12:22.312Z,25.77
2019-05-19T14:14:51.562Z,22.73
2019-05-19T14:17:21.238Z,23.50
2019-05-19T14:19:50.268Z,23.70
2019-05-19T14:22:19.723Z,21.10
2019-05-19T14:24:48.793Z,22.53
2019-05-19T14:27:29.225Z,23.70
2019-05-19T14:29:48.902Z,27.60
2019-05-19T14:32:18.029Z,20.10
2019-05-19T14:34:47.390Z,22.87
2019-05-19T14:37:16.703Z,22.40
2019-05-19T14:39:45.711Z,21.10
2019-05-19T14:42:18.207Z,21.00
2019-05-19T14:44:47.303Z,20.13
2019-05-19T14:47:16.491Z,23.03
2019-05-19T14:49:45.802Z,21.83
2019-05-19T14:52:14.868Z,21.62
2019-05-19T14:54:43.991Z,21.53
2019-05-19T14:57:13.118Z,18.17
2019-05-19T14:59:42.225Z,21.03
2019-05-19T15:02:11.790Z,18.83
2019-05-19T15:04:40.841Z,18.57
2019-05-19T15:07:09.995Z,25.13
2019-05-19T15:09:39.086Z,19.27
2019-05-19T15:12:08.208Z,18.40
2019-05-19T15:14:37.689Z,17.80
2019-05-19T15:17:07.003Z,18.95
2019-05-19T15:19:36.947Z,19.40
2019-05-19T15:22:06.270Z,18.00
2019-05-19T15:24:35.511Z,20.07
2019-05-19T15:27:04.721Z,18.17
2019-05-19T15:29:33.854Z,20.57
2019-05-19T15:32:03.311Z,17.97
2019-05-19T15:34:32.425Z,18.97
2019-05-19T15:37:01.496Z,19.02
2019-05-19T15:39:30.660Z,20.53
2019-05-19T15:41:59.731Z,18.53
2019-05-19T15:44:29.043Z,18.87
2019-05-19T15:46:58.408Z,19.37
2019-05-19T15:49:27.473Z,20.63
2019-05-19T15:52:02.822Z,18.33
2019-05-19T15:54:27.517Z,16.27
2019-05-19T15:56:56.585Z,18.17
2019-05-19T15:59:25.788Z,18.33
2019-05-19T16:01:54.869Z,23.53
2019-05-19T16:04:23.898Z,20.27
2019-05-19T16:06:53.274Z,18.97
2019-05-19T16:09:25.326Z,21.40
2019-05-19T16:11:54.415Z,24.50
2019-05-19T16:14:23.426Z,22.17
2019-05-19T16:16:52.767Z,23.13
2019-05-19T16:19:22.091Z,23.50
2019-05-19T16:21:51.159Z,23.20
2019-05-19T16:24:20.245Z,24.43
2019-05-19T16:26:49.588Z,25.77
2019-05-19T16:29:18.871Z,21.20
2019-05-19T16:31:48.790Z,23.67
2019-05-19T16:34:17.880Z,23.73
2019-05-19T16:36:47.308Z,24.93
2019-05-19T16:39:19.564Z,23.17
2019-05-19T16:41:49.397Z,28.20
2019-05-19T16:44:18.879Z,23.43
2019-05-19T16:46:48.056Z,26.83
2019-05-19T16:49:17.116Z,21.80
2019-05-19T16:51:46.548Z,23.10
2019-05-19T16:54:21.061Z,23.93
2019-05-19T16:56:50.151Z,24.90
2019-05-19T16:59:19.468Z,24.13
2019-05-19T17:01:48.820Z,23.10
2019-05-19T17:04:17.884Z,22.70
2019-05-19T17:06:47.244Z,24.37
2019-05-19T17:09:16.681Z,23.37
2019-05-19T17:11:45.900Z,24.83
2019-05-19T17:14:15.425Z,21.23
2019-05-19T17:16:44.637Z,24.20
2019-05-19T17:19:13.688Z,21.30
2019-05-19T17:21:42.754Z,21.33
2019-05-19T17:24:11.863Z,19.63
2019-05-19T17:26:40.906Z,20.97
2019-05-19T17:29:10.222Z,20.17
2019-05-19T17:31:39.588Z,20.70
2019-05-19T17:34:08.730Z,22.33
2019-05-19T17:36:38.067Z,20.60
2019-05-19T17:39:07.721Z,17.20
2019-05-19T17:41:36.841Z,21.53
2019-05-19T17:44:07.638Z,19.77
2019-05-19T17:46:36.756Z,22.20
2019-05-19T17:49:05.826Z,18.60
2019-05-19T17:51:35.097Z,18.33
2019-05-19T17:54:04.216Z,21.87
2019-05-19T17:56:33.257Z,18.40
2019-05-19T17:59:15.801Z,17.90
2019-05-19T18:01:33.687Z,17.13
2019-05-19T18:04:02.790Z,21.97
2019-05-19T18:06:32.220Z,15.10
2019-05-19T18:09:01.282Z,16.43
2019-05-19T18:11:30.733Z,15.50
2019-05-19T18:14:00.595Z,13.20
2019-05-19T18:16:29.684Z,19.60
2019-05-19T18:19:00.305Z,16.67
2019-05-19T18:21:29.747Z,13.57
2019-05-19T18:23:59.107Z,17.43
2019-05-19T18:26:28.132Z,16.33
2019-05-19T18:28:57.436Z,18.40
2019-05-19T18:31:26.489Z,16.00
2019-05-19T18:33:55.614Z,17.63
2019-05-19T18:36:24.867Z,14.77
2019-05-19T18:38:53.967Z,15.43
2019-05-19T18:41:23.033Z,17.53
2019-05-19T18:43:52.120Z,14.63
2019-05-19T18:46:22.815Z,17.40
2019-05-19T18:48:52.211Z,16.50
2019-05-19T18:51:21.589Z,17.73
2019-05-19T18:53:50.642Z,17.07
2019-05-19T18:56:19.812Z,17.37
2019-05-19T18:58:49.280Z,18.27
2019-05-19T19:01:18.694Z,16.80
2019-05-19T19:03:47.894Z,16.67
2019-05-19T19:06:16.912Z,17.87
2019-05-19T19:08:46.040Z,16.67
2019-05-19T19:11:15.523Z,15.63
2019-05-19T19:13:44.640Z,17.20
2019-05-19T19:16:13.726Z,17.50
2019-05-19T19:18:43.118Z,20.77
2019-05-19T19:21:12.205Z,19.40
2019-05-19T19:23:41.261Z,20.50
2019-05-19T19:26:10.377Z,20.50
2019-05-19T19:28:42.923Z,17.17
2019-05-19T19:31:12.817Z,22.13
2019-05-19T19:33:42.178Z,17.47
2019-05-19T19:36:14.734Z,21.23
2019-05-19T19:38:44.417Z,17.33
2019-05-19T19:41:13.842Z,18.20
2019-05-19T19:43:42.938Z,17.07
2019-05-19T19:46:12.061Z,17.03
2019-05-19T19:48:41.567Z,21.07
2019-05-19T19:51:10.605Z,17.97
2019-05-19T19:53:39.649Z,20.50
2019-05-19T19:56:08.893Z,18.50
2019-05-19T19:58:37.979Z,15.73
2019-05-19T20:01:07.110Z,18.10
2019-05-19T20:03:39.746Z,21.53
2019-05-19T20:06:07.145Z,19.43
2019-05-19T20:08:36.528Z,21.13
2019-05-19T20:11:05.577Z,18.87
2019-05-19T20:13:34.742Z,17.33
2019-05-19T20:16:03.786Z,19.33
2019-05-19T20:18:33.584Z,21.20
2019-05-19T20:21:03.441Z,21.30
2019-05-19T20:23:32.596Z,18.00
2019-05-19T20:26:05.898Z,21.50
2019-05-19T20:28:35.043Z,22.97
2019-05-19T20:31:04.575Z,21.00
2019-05-19T20:33:33.817Z,20.77
2019-05-19T20:36:03.266Z,20.57
2019-05-19T20:38:32.357Z,21.13
2019-05-19T20:41:01.438Z,22.40
2019-05-19T20:43:30.485Z,19.97
2019-05-19T20:46:00.500Z,21.23
2019-05-19T20:48:32.619Z,19.30
2019-05-19T20:51:00.566Z,23.80
2019-05-19T20:53:29.621Z,25.80
2019-05-19T20:55:58.759Z,22.57
2019-05-19T20:58:28.210Z,24.27
2019-05-19T21:00:57.302Z,24.87
2019-05-19T21:03:26.701Z,22.63
2019-05-19T21:05:56.129Z,32.27
2019-05-19T21:08:25.239Z,29.43
2019-05-19T21:10:54.261Z,35.53
2019-05-19T21:13:23.304Z,25.67
2019-05-19T21:15:52.432Z,29.47
2019-05-19T21:18:21.642Z,27.93
2019-05-19T21:20:50.670Z,27.07
2019-05-19T21:23:19.724Z,37.00
2019-05-19T21:25:49.276Z,31.50
2019-05-19T21:28:18.885Z,34.57
2019-05-19T21:30:48.054Z,33.77
2019-05-19T21:33:17.376Z,36.00
2019-05-19T21:35:46.460Z,34.87
2019-05-19T21:38:15.542Z,34.73
2019-05-19T21:40:45.005Z,35.73
2019-05-19T21:43:14.137Z,38.43
2019-05-19T21:45:43.490Z,39.57
2019-05-19T21:48:12.788Z,35.97
2019-05-19T21:50:41.867Z,38.20
2019-05-19T21:53:10.942Z,32.87
2019-05-19T21:55:42.854Z,37.40
2019-05-19T21:58:11.896Z,39.73
2019-05-19T22:00:41.353Z,39.87
2019-05-19T22:03:10.405Z,43.60
2019-05-19T22:05:52.592Z,40.50
2019-05-19T22:08:13.989Z,39.97
2019-05-19T22:10:43.529Z,43.07
2019-05-19T22:13:13.398Z,44.60
2019-05-19T22:15:42.431Z,45.60
2019-05-19T22:18:11.482Z,43.40
2019-05-19T22:20:40.896Z,49.63
2019-05-19T22:23:10.237Z,43.67
2019-05-19T22:25:39.636Z,45.37
2019-05-19T22:28:08.663Z,46.73
2019-05-19T22:30:37.693Z,44.40
2019-05-19T22:33:07.111Z,48.80
2019-05-19T22:35:36.134Z,46.80
2019-05-19T22:38:05.323Z,49.80
2019-05-19T22:40:34.637Z,55.10
2019-05-19T22:43:04.069Z,53.00
2019-05-19T22:45:33.879Z,56.27
2019-05-19T22:48:02.917Z,53.57
2019-05-19T22:50:31.925Z,47.60
2019-05-19T22:53:00.922Z,52.27
2019-05-19T22:55:30.347Z,55.57
2019-05-19T22:57:59.400Z,50.20
2019-05-19T23:00:29.244Z,54.70
2019-05-19T23:02:58.271Z,56.93
2019-05-19T23:05:27.420Z,58.03
2019-05-19T23:07:56.465Z,56.77
2019-05-19T23:10:25.526Z,51.77
2019-05-19T23:12:54.543Z,53.87
2019-05-19T23:15:23.817Z,62.97
2019-05-19T23:17:52.800Z,61.87
2019-05-19T23:20:21.862Z,58.63
2019-05-19T23:22:51.189Z,63.73
2019-05-19T23:25:20.268Z,62.67
2019-05-19T23:27:49.583Z,65.90
2019-05-19T23:30:18.745Z,67.23
2019-05-19T23:32:47.718Z,63.87
2019-05-19T23:35:16.841Z,67.10
2019-05-19T23:37:45.910Z,64.77
2019-05-19T23:40:15.247Z,60.17
2019-05-19T23:42:44.289Z,60.03
2019-05-19T23:45:14.014Z,50.23
2019-05-19T23:47:43.370Z,61.27
2019-05-19T23:50:12.925Z,66.07
2019-05-19T23:52:41.973Z,60.50
2019-05-19T23:55:10.999Z,61.17
2019-05-19T23:57:40.050Z,59.50
